createdAt,value
2018-12-13T00:00:29.606Z,94.82
2018-12-13T00:03:08.385Z,95.15
2018-12-13T00:05:43.059Z,95.48
2018-12-13T00:08:19.395Z,95.24
2018-12-13T00:10:51.640Z,95.34
2018-12-13T00:13:23.608Z,95.29
2018-12-13T00:15:59.656Z,95.21
2018-12-13T00:18:35.741Z,94.84
2018-12-13T00:21:08.100Z,94.58
2018-12-13T00:23:40.512Z,94.29
2018-12-13T00:26:12.790Z,94.41
2018-12-13T00:28:43.812Z,94.45
2018-12-13T00:31:19.959Z,94.96
2018-12-13T00:33:56.130Z,94.87
2018-12-13T00:36:32.179Z,94.85
2018-12-13T00:39:06.221Z,94.76
2018-12-13T00:41:38.639Z,95.10
2018-12-13T00:44:10.924Z,95.03
2018-12-13T00:46:43.233Z,94.71
2018-12-13T00:49:19.382Z,94.39
2018-12-13T00:51:52.374Z,94.06
2018-12-13T00:54:25.288Z,93.97
2018-12-13T00:56:57.655Z,94.45
2018-12-13T00:59:33.979Z,94.54
2018-12-13T01:02:10.924Z,94.11
2018-12-13T01:04:43.925Z,94.57
2018-12-13T01:07:16.973Z,94.46
2018-12-13T01:09:49.299Z,94.26
2018-12-13T01:12:19.643Z,94.15
2018-12-13T01:14:51.895Z,94.06
2018-12-13T01:17:28.288Z,93.74
2018-12-13T01:20:00.440Z,94.20
2018-12-13T01:22:37.171Z,95.08
2018-12-13T01:25:13.479Z,94.57
2018-12-13T01:27:50.592Z,94.51
2018-12-13T01:30:22.917Z,94.21
2018-12-13T01:32:59.969Z,93.90
2018-12-13T01:35:32.576Z,93.94
2018-12-13T01:38:05.454Z,93.94
2018-12-13T01:40:41.650Z,93.98
2018-12-13T01:43:18.106Z,93.98
2018-12-13T01:45:54.157Z,93.83
2018-12-13T01:48:24.386Z,93.51
2018-12-13T01:50:57.333Z,93.49
2018-12-13T01:53:33.731Z,93.67
2018-12-13T01:56:06.538Z,93.78
2018-12-13T01:58:39.204Z,93.43
2018-12-13T02:01:15.468Z,94.09
2018-12-13T02:03:52.568Z,94.14
2018-12-13T02:06:25.588Z,94.21
2018-12-13T02:08:58.596Z,94.32
2018-12-13T02:11:30.610Z,94.42
2018-12-13T02:14:03.013Z,94.37
2018-12-13T02:16:37.013Z,94.44
2018-12-13T02:19:13.189Z,93.88
2018-12-13T02:21:46.130Z,93.79
2018-12-13T02:24:23.313Z,93.67
2018-12-13T02:27:00.213Z,93.55
2018-12-13T02:29:33.393Z,93.66
2018-12-13T02:32:06.425Z,93.38
2018-12-13T02:34:39.206Z,93.36
2018-12-13T02:37:15.489Z,93.51
2018-12-13T02:39:51.561Z,93.66
2018-12-13T02:42:26.452Z,93.48
2018-12-13T02:45:06.449Z,93.25
2018-12-13T02:47:45.829Z,93.99
2018-12-13T02:50:28.529Z,93.82
2018-12-13T02:53:10.525Z,93.46
2018-12-13T02:55:47.310Z,93.69
2018-12-13T02:58:27.260Z,93.62
2018-12-13T03:01:03.992Z,93.67
2018-12-13T03:03:39.382Z,93.44
2018-12-13T03:06:23.798Z,93.59
2018-12-13T03:09:07.657Z,93.45
2018-12-13T03:11:47.811Z,93.42
2018-12-13T03:14:24.685Z,93.49
2018-12-13T03:17:00.307Z,93.13
2018-12-13T03:19:35.161Z,93.08
2018-12-13T03:39:46.101Z,93.98
2018-12-13T03:42:19.770Z,93.78
2018-12-13T03:44:53.446Z,93.62
2018-12-13T03:47:30.281Z,93.27
2018-12-13T03:50:04.809Z,93.40
2018-12-13T03:52:39.921Z,93.63
2018-12-13T03:55:14.745Z,93.80
2018-12-13T03:57:48.900Z,93.60
2018-12-13T04:00:22.114Z,93.17
2018-12-13T04:02:55.971Z,92.79
2018-12-13T04:05:33.680Z,92.81
2018-12-13T04:08:11.230Z,92.45
2018-12-13T04:10:47.707Z,91.95
2018-12-13T04:13:24.671Z,92.01
2018-12-13T04:16:01.571Z,91.47
2018-12-13T04:18:39.429Z,91.60
2018-12-13T04:21:12.855Z,91.57
2018-12-13T04:23:45.689Z,91.82
2018-12-13T04:26:16.637Z,91.76
2018-12-13T04:28:53.614Z,91.87
2018-12-13T04:31:25.635Z,91.69
2018-12-13T04:33:55.637Z,91.73
2018-12-13T04:36:28.572Z,91.44
2018-12-13T04:39:07.877Z,91.87
2018-12-13T04:54:15.836Z,92.15
2018-12-13T04:56:46.093Z,91.73
2018-12-13T04:59:19.088Z,91.44
2018-12-13T05:01:55.391Z,91.84
2018-12-13T05:04:27.454Z,92.02
2018-12-13T05:06:59.696Z,92.27
2018-12-13T05:09:30.643Z,91.58
2018-12-13T05:12:03.990Z,92.25
2018-12-13T05:14:36.977Z,92.18
2018-12-13T05:17:07.892Z,92.17
2018-12-13T05:19:41.035Z,92.20
2018-12-13T05:22:13.365Z,92.02
2018-12-13T05:24:49.410Z,91.95
2018-12-13T05:27:26.371Z,92.50
2018-12-13T05:30:02.536Z,92.16
2018-12-13T05:32:34.807Z,92.35
2018-12-13T05:35:07.784Z,92.61
2018-12-13T05:37:39.948Z,92.60
2018-12-13T05:40:16.558Z,92.45
2018-12-13T05:42:52.607Z,92.41
2018-12-13T05:45:28.675Z,92.16
2018-12-13T05:48:00.740Z,92.34
2018-12-13T05:50:32.959Z,92.68
2018-12-13T05:53:05.192Z,92.47
2018-12-13T06:08:08.798Z,93.13
2018-12-13T06:10:41.709Z,93.19
2018-12-13T06:13:18.921Z,93.45
2018-12-13T06:15:51.961Z,93.63
2018-12-13T06:18:25.136Z,93.82
2018-12-13T06:20:57.305Z,94.07
2018-12-13T06:23:30.463Z,94.11
2018-12-13T06:26:07.629Z,94.18
2018-12-13T06:28:44.657Z,94.22
2018-12-13T06:31:15.014Z,94.82
2018-12-13T06:33:48.236Z,94.71
2018-12-13T06:36:21.536Z,95.29
2018-12-13T06:38:55.494Z,95.20
2018-12-13T06:41:28.303Z,96.16
2018-12-13T06:43:58.674Z,96.14
2018-12-13T06:46:31.653Z,96.09
2018-12-13T06:49:04.168Z,96.46
2018-12-13T06:51:37.040Z,95.96
2018-12-13T06:54:10.114Z,96.42
2018-12-13T06:56:46.896Z,96.12
2018-12-13T06:59:19.208Z,96.19
2018-12-13T07:01:52.109Z,96.18
2018-12-13T07:04:29.016Z,96.31
2018-12-13T07:17:00.514Z,97.27
2018-12-13T07:19:42.455Z,97.12
2018-12-13T07:22:16.703Z,97.01
2018-12-13T07:24:50.528Z,96.53
2018-12-13T07:27:23.311Z,96.14
2018-12-13T07:30:00.215Z,96.63
2018-12-13T07:32:32.940Z,96.57
2018-12-13T07:35:06.605Z,96.67
2018-12-13T07:37:40.294Z,96.42
2018-12-13T07:40:16.432Z,96.26
2018-12-13T07:42:52.607Z,96.39
2018-12-13T07:45:25.563Z,96.51
2018-12-13T07:48:01.884Z,96.17
2018-12-13T07:50:34.140Z,96.23
2018-12-13T07:53:10.320Z,96.07
2018-12-13T07:55:42.716Z,96.05
2018-12-13T07:58:15.089Z,96.16
2018-12-13T08:00:45.509Z,96.27
2018-12-13T08:03:21.685Z,96.40
2018-12-13T08:05:53.770Z,96.21
2018-12-13T08:08:26.204Z,95.87
2018-12-13T08:10:59.204Z,96.15
2018-12-13T08:13:36.227Z,95.67
2018-12-13T08:16:08.635Z,95.87
2018-12-13T08:18:43.139Z,95.71
2018-12-13T08:21:18.255Z,95.71
2018-12-13T08:23:55.384Z,95.64
2018-12-13T08:26:27.803Z,94.83
2018-12-13T08:29:04.635Z,94.95
2018-12-13T08:31:37.559Z,94.97
2018-12-13T08:34:09.819Z,94.81
2018-12-13T08:36:42.799Z,95.17
2018-12-13T08:39:14.889Z,95.25
2018-12-13T08:41:51.853Z,95.04
2018-12-13T08:44:24.232Z,95.14
2018-12-13T08:46:54.431Z,95.03
2018-12-13T08:49:27.510Z,94.79
2018-12-13T08:52:00.565Z,95.17
2018-12-13T08:54:36.711Z,95.02
2018-12-13T08:57:13.536Z,95.13
2018-12-13T08:59:50.050Z,95.62
2018-12-13T09:02:26.412Z,95.24
2018-12-13T09:04:59.449Z,94.78
2018-12-13T09:07:32.479Z,94.73
2018-12-13T09:10:06.546Z,94.94
2018-12-13T09:12:38.893Z,94.81
2018-12-13T09:15:14.991Z,95.16
2018-12-13T09:17:47.384Z,94.96
2018-12-13T09:20:19.586Z,94.65
2018-12-13T09:22:52.661Z,94.32
2018-12-13T09:25:28.889Z,94.42
2018-12-13T09:28:01.995Z,94.41
2018-12-13T09:30:38.881Z,94.18
2018-12-13T09:33:15.433Z,94.01
2018-12-13T09:35:47.555Z,94.04
2018-12-13T09:38:19.719Z,94.18
2018-12-13T09:40:51.934Z,94.40
2018-12-13T09:43:24.249Z,93.97
2018-12-13T09:45:57.189Z,94.26
2018-12-13T09:48:29.578Z,93.73
2018-12-13T09:51:05.915Z,93.61
2018-12-13T09:53:42.193Z,93.79
2018-12-13T09:56:18.385Z,94.34
2018-12-13T09:58:55.459Z,93.21
2018-12-13T10:01:26.458Z,94.37
2018-12-13T10:03:59.699Z,93.41
2018-12-13T10:06:36.672Z,93.51
2018-12-13T10:09:08.964Z,93.70
2018-12-13T10:11:42.225Z,93.20
2018-12-13T10:14:15.218Z,93.30
2018-12-13T10:16:52.312Z,93.97
2018-12-13T10:19:29.375Z,93.62
2018-12-13T10:22:02.222Z,92.85
2018-12-13T10:24:34.611Z,93.27
2018-12-13T10:27:06.673Z,93.39
2018-12-13T10:29:38.885Z,93.01
2018-12-13T10:32:14.993Z,93.02
2018-12-13T10:34:47.423Z,93.07
2018-12-13T10:37:20.148Z,92.72
2018-12-13T10:39:52.539Z,93.45
2018-12-13T10:42:25.061Z,93.18
2018-12-13T10:45:01.271Z,93.08
2018-12-13T10:47:37.457Z,93.11
2018-12-13T10:50:09.942Z,92.85
2018-12-13T10:52:46.949Z,92.85
2018-12-13T10:55:20.091Z,92.81
2018-12-13T10:57:53.179Z,93.04
2018-12-13T11:00:31.495Z,93.09
2018-12-13T11:03:23.057Z,92.89
2018-12-13T11:05:55.972Z,93.34
2018-12-13T11:08:29.396Z,93.44
2018-12-13T11:11:02.628Z,93.64
2018-12-13T11:13:38.203Z,93.92
2018-12-13T11:16:14.598Z,93.95
2018-12-13T11:18:47.062Z,93.87
2018-12-13T11:21:18.022Z,93.77
2018-12-13T11:23:48.344Z,93.97
2018-12-13T11:26:24.609Z,93.48
2018-12-13T11:29:39.668Z,93.96
2018-12-13T11:32:09.991Z,93.86
2018-12-13T11:34:42.024Z,94.09
2018-12-13T11:37:19.622Z,93.86
2018-12-13T11:39:53.291Z,94.18
2018-12-13T11:42:31.440Z,93.99
2018-12-13T11:45:06.625Z,93.95
2018-12-13T11:47:40.235Z,93.39
2018-12-13T11:50:14.072Z,93.81
2018-12-13T11:52:47.189Z,94.09
2018-12-13T11:55:53.020Z,93.82
2018-12-13T11:58:26.234Z,93.98
2018-12-13T12:00:57.277Z,94.03
2018-12-13T12:03:33.633Z,93.87
2018-12-13T12:06:08.974Z,94.24
2018-12-13T12:08:48.123Z,93.83
2018-12-13T12:11:27.491Z,93.56
2018-12-13T12:14:04.104Z,94.24
2018-12-13T12:16:36.174Z,94.00
2018-12-13T12:19:11.673Z,93.65
2018-12-13T12:21:42.855Z,93.24
2018-12-13T12:24:13.548Z,93.90
2018-12-13T12:26:53.702Z,93.72
2018-12-13T12:29:30.180Z,93.96
2018-12-13T12:32:03.543Z,94.11
2018-12-13T12:34:34.560Z,93.75
2018-12-13T12:37:08.102Z,93.08
2018-12-13T12:39:44.385Z,92.84
2018-12-13T12:42:17.710Z,93.01
2018-12-13T12:44:53.860Z,93.18
2018-12-13T12:47:32.645Z,93.27
2018-12-13T12:50:08.368Z,92.94
2018-12-13T12:52:40.979Z,92.89
2018-12-13T12:55:21.939Z,91.36
2018-12-13T12:57:59.468Z,91.54
2018-12-13T13:00:31.792Z,91.52
2018-12-13T13:03:08.573Z,92.16
2018-12-13T13:05:40.893Z,91.76
2018-12-13T13:08:14.126Z,92.21
2018-12-13T13:10:51.958Z,91.38
2018-12-13T13:13:24.969Z,91.14
2018-12-13T13:16:01.180Z,91.35
2018-12-13T13:18:39.968Z,90.52
2018-12-13T13:21:18.087Z,91.17
2018-12-13T13:23:51.551Z,90.92
2018-12-13T13:26:29.201Z,91.33
2018-12-13T13:29:05.586Z,91.14
2018-12-13T13:31:39.082Z,91.70
2018-12-13T13:34:11.845Z,90.58
2018-12-13T13:36:45.228Z,90.19
2018-12-13T13:39:17.481Z,90.63
2018-12-13T13:41:55.967Z,90.92
2018-12-13T13:44:38.026Z,91.38
2018-12-13T13:47:11.260Z,91.13
2018-12-13T13:49:44.452Z,91.06
2018-12-13T13:52:17.235Z,91.00
2018-12-13T13:54:53.406Z,90.93
2018-12-13T13:57:26.467Z,90.12
2018-12-13T14:00:03.692Z,90.03
2018-12-13T14:02:40.569Z,89.21
2018-12-13T14:05:13.495Z,89.45
2018-12-13T14:07:48.698Z,89.76
2018-12-13T14:10:22.607Z,89.72
2018-12-13T14:12:55.967Z,89.28
2018-12-13T14:15:27.337Z,89.40
2018-12-13T14:18:00.480Z,89.21
2018-12-13T14:20:33.632Z,89.35
2018-12-13T14:23:10.280Z,90.21
2018-12-13T14:25:45.035Z,90.97
2018-12-13T14:28:22.043Z,90.99
2018-12-13T14:30:54.999Z,90.50
2018-12-13T14:33:30.235Z,90.95
2018-12-13T14:36:10.641Z,91.33
2018-12-13T14:38:45.375Z,91.52
2018-12-13T14:41:21.702Z,91.42
2018-12-13T14:44:14.682Z,91.24
2018-12-13T14:46:48.566Z,90.64
2018-12-13T14:49:21.901Z,90.33
2018-12-13T14:51:54.977Z,89.63
2018-12-13T14:54:27.568Z,89.53
2018-12-13T14:57:00.402Z,89.76
2018-12-13T14:59:36.887Z,89.64
2018-12-13T15:02:13.933Z,90.34
2018-12-13T15:04:48.565Z,90.06
2018-12-13T15:07:25.465Z,90.11
2018-12-13T15:09:58.525Z,90.34
2018-12-13T15:12:35.472Z,90.45
2018-12-13T15:15:08.055Z,90.04
2018-12-13T15:17:40.739Z,90.31
2018-12-13T15:20:17.181Z,90.19
2018-12-13T15:22:50.118Z,89.90
2018-12-13T15:25:26.525Z,89.83
2018-12-13T15:28:04.374Z,89.71
2018-12-13T15:30:36.923Z,89.66
2018-12-13T15:33:13.275Z,89.65
2018-12-13T15:35:46.020Z,89.66
2018-12-13T15:38:19.362Z,89.87
2018-12-13T15:40:52.012Z,90.39
2018-12-13T15:43:25.480Z,90.02
2018-12-13T15:45:58.334Z,89.77
2018-12-13T15:48:31.528Z,90.02
2018-12-13T15:51:04.697Z,89.75
2018-12-13T15:53:37.523Z,89.36
2018-12-13T15:56:15.393Z,89.20
2018-12-13T15:58:51.645Z,89.10
2018-12-13T16:01:23.857Z,89.25
2018-12-13T16:04:00.991Z,89.02
2018-12-13T16:06:38.074Z,89.65
2018-12-13T16:09:10.985Z,89.71
2018-12-13T16:11:43.076Z,89.88
2018-12-13T16:14:16.176Z,89.69
2018-12-13T16:16:48.372Z,89.91
2018-12-13T16:19:25.560Z,89.30
2018-12-13T16:21:59.532Z,89.27
2018-12-13T16:24:35.862Z,89.21
2018-12-13T16:27:17.705Z,88.76
2018-12-13T16:29:53.949Z,88.25
2018-12-13T16:32:25.086Z,88.08
2018-12-13T16:42:35.629Z,88.62
2018-12-13T16:45:09.767Z,88.65
2018-12-13T16:47:42.680Z,88.35
2018-12-13T16:50:15.819Z,88.55
2018-12-13T16:52:49.009Z,88.24
2018-12-13T16:55:21.373Z,87.82
2018-12-13T16:57:53.911Z,87.82
2018-12-13T17:00:26.734Z,87.86
2018-12-13T17:03:00.036Z,87.85
2018-12-13T17:05:33.002Z,87.75
2018-12-13T17:08:05.646Z,88.43
2018-12-13T17:10:38.536Z,88.07
2018-12-13T17:13:12.404Z,87.75
2018-12-13T17:15:49.786Z,87.50
2018-12-13T17:18:24.275Z,87.41
2018-12-13T17:20:57.570Z,87.55
2018-12-13T17:23:31.356Z,87.09
2018-12-13T17:26:04.653Z,87.31
2018-12-13T17:28:40.320Z,87.64
2018-12-13T17:31:15.965Z,87.81
2018-12-13T17:33:50.753Z,87.67
2018-12-13T17:36:26.459Z,87.08
2018-12-13T17:39:00.353Z,87.57
2018-12-13T17:41:40.660Z,87.97
2018-12-13T17:49:21.357Z,88.08
2018-12-13T17:54:28.292Z,87.78
2018-12-13T17:57:04.875Z,88.12
2018-12-13T17:59:35.784Z,88.08
2018-12-13T18:02:09.884Z,87.79
2018-12-13T18:04:43.800Z,88.01
2018-12-13T18:07:20.412Z,88.09
2018-12-13T18:09:52.148Z,88.05
2018-12-13T18:12:25.750Z,87.82
2018-12-13T18:15:00.445Z,87.50
2018-12-13T18:17:33.532Z,87.50
2018-12-13T18:20:07.068Z,87.37
2018-12-13T18:22:40.079Z,87.85
2018-12-13T18:25:14.239Z,87.81
2018-12-13T18:27:48.878Z,87.58
2018-12-13T18:30:21.807Z,87.88
2018-12-13T18:32:54.987Z,87.70
2018-12-13T18:35:32.907Z,87.69
2018-12-13T18:38:06.230Z,87.95
2018-12-13T18:40:39.933Z,88.04
2018-12-13T18:43:16.974Z,88.06
2018-12-13T18:45:54.059Z,87.52
2018-12-13T18:48:33.092Z,87.21
2018-12-13T18:51:10.476Z,87.40
2018-12-13T18:53:43.919Z,87.47
2018-12-13T19:06:24.497Z,89.10
2018-12-13T19:09:00.767Z,89.09
2018-12-13T19:11:31.785Z,89.34
2018-12-13T19:14:05.148Z,89.63
2018-12-13T19:16:41.568Z,90.08
2018-12-13T19:19:15.325Z,91.09
2018-12-13T19:21:47.541Z,91.16
2018-12-13T19:24:18.944Z,91.89
2018-12-13T19:26:57.055Z,92.19
2018-12-13T19:29:29.949Z,92.69
2018-12-13T19:32:03.256Z,92.63
2018-12-13T19:34:36.403Z,92.97
2018-12-13T19:37:12.857Z,93.39
2018-12-13T19:39:50.074Z,93.35
2018-12-13T19:42:27.189Z,92.90
2018-12-13T19:45:00.323Z,92.77
2018-12-13T19:47:33.528Z,92.54
2018-12-13T19:50:04.852Z,92.70
2018-12-13T19:52:37.778Z,92.75
2018-12-13T19:55:12.143Z,92.74
2018-12-13T19:57:45.295Z,92.78
2018-12-13T20:00:18.533Z,92.67
2018-12-13T20:02:52.092Z,93.02
2018-12-13T20:05:25.501Z,92.84
2018-12-13T20:08:02.642Z,92.79
2018-12-13T20:10:35.557Z,92.15
2018-12-13T20:13:06.676Z,92.10
2018-12-13T20:15:43.919Z,91.45
2018-12-13T20:18:17.005Z,91.04
2018-12-13T20:20:50.239Z,90.84
2018-12-13T20:23:27.240Z,90.62
2018-12-13T20:26:04.362Z,90.12
2018-12-13T20:28:41.356Z,89.95
2018-12-13T20:31:14.442Z,89.96
2018-12-13T20:33:47.286Z,89.71
2018-12-13T20:36:18.574Z,89.13
2018-12-13T20:38:51.720Z,88.76
2018-12-13T20:41:28.178Z,88.29
2018-12-13T20:44:01.390Z,88.37
2018-12-13T20:46:34.155Z,88.04
2018-12-13T20:49:07.317Z,87.95
2018-12-13T20:51:40.489Z,87.65
2018-12-13T20:54:16.721Z,87.47
2018-12-13T20:56:53.633Z,86.55
2018-12-13T20:59:26.786Z,86.44
2018-12-13T21:01:59.239Z,86.59
2018-12-13T21:04:35.463Z,86.70
2018-12-13T21:07:17.205Z,87.04
2018-12-13T21:12:17.977Z,86.71
2018-12-13T21:14:51.049Z,86.19
2018-12-13T21:17:28.226Z,86.73
2018-12-13T21:20:01.216Z,86.12
2018-12-13T21:22:32.269Z,86.17
2018-12-13T21:25:08.857Z,86.48
2018-12-13T21:27:41.826Z,86.07
2018-12-13T21:30:12.735Z,86.37
2018-12-13T21:32:45.772Z,86.24
2018-12-13T21:35:22.230Z,87.19
2018-12-13T21:37:59.334Z,86.42
2018-12-13T21:40:32.576Z,85.66
2018-12-13T21:43:09.669Z,85.99
2018-12-13T21:45:43.049Z,86.53
2018-12-13T21:48:15.585Z,86.38
2018-12-13T21:50:48.977Z,86.17
2018-12-13T21:53:26.089Z,86.76
2018-12-13T21:55:58.756Z,88.00
2018-12-13T21:58:37.893Z,87.53
2018-12-13T22:01:10.622Z,88.50
2018-12-13T22:03:41.592Z,87.78
2018-12-13T22:06:14.021Z,86.64
2018-12-13T22:08:47.114Z,87.57
2018-12-13T22:18:57.101Z,86.87
2018-12-13T22:26:32.671Z,86.77
2018-12-13T22:29:05.066Z,87.39
2018-12-13T22:31:42.475Z,87.33
2018-12-13T22:34:15.868Z,86.79
2018-12-13T22:36:51.098Z,86.59
2018-12-13T22:39:23.824Z,87.09
2018-12-13T22:42:00.936Z,87.03
2018-12-13T22:44:34.235Z,87.25
2018-12-13T22:47:11.359Z,87.89
2018-12-13T22:49:44.576Z,87.78
2018-12-13T22:52:17.487Z,87.98
2018-12-13T22:54:54.645Z,88.08
2018-12-13T22:57:27.929Z,88.27
2018-12-13T23:00:01.028Z,88.13
2018-12-13T23:02:37.663Z,87.68
2018-12-13T23:05:10.560Z,87.88
2018-12-13T23:07:47.479Z,88.25
2018-12-13T23:10:21.771Z,88.38
2018-12-13T23:12:58.098Z,88.10
2018-12-13T23:15:31.776Z,88.24
2018-12-13T23:18:08.865Z,88.43
2018-12-13T23:20:46.009Z,88.39
2018-12-13T23:23:18.294Z,88.84
2018-12-13T23:25:51.172Z,88.58
2018-12-13T23:28:28.430Z,88.92
2018-12-13T23:30:59.508Z,88.55
2018-12-13T23:33:35.835Z,88.90
2018-12-13T23:36:12.688Z,88.73
2018-12-13T23:38:44.925Z,88.00
2018-12-13T23:41:17.848Z,87.92
2018-12-13T23:43:50.879Z,87.47
2018-12-13T23:46:27.820Z,87.92
2018-12-13T23:49:01.027Z,88.08
2018-12-13T23:51:31.848Z,88.29
2018-12-13T23:54:08.192Z,86.90
2018-12-13T23:56:39.154Z,86.74
2018-12-13T23:59:11.571Z,86.99
